Time;durP1;ratioP1;P1;durP2;ratioP2;P2;SDS_P1;SDS_P2;PMS_P1;PMS_P2;Temp;Humidity;BMP_temperature;BMP_pressure;BME280_temperature;BME280_humidity;BME280_pressure;Samples;Min_cycle;Max_cycle;Signal;HPM_P1;HPM_P2
2023/03/05 00:01:52;;;;;;;;;;;;;;;;;;5053406;28;19962;-73
2023/03/05 00:04:18;;;;;;;;;;;;;;;;;;5053050;28;19974;-74
2023/03/05 00:06:44;;;;;;;;;;;;;;;;;;5053188;28;19900;-74
2023/03/05 00:09:10;;;;;;;;;;;;;;;;;;5053063;28;20381;-73
2023/03/05 00:11:36;;;;;;;;;;;;;;;;;;5053217;28;19966;-72
2023/03/05 00:14:05;;;;;;;;;;;;;;;;;;5052948;28;19905;-73
2023/03/05 00:16:31;;;;;;;;;;;;;;;;;;5053109;28;19913;-71
2023/03/05 00:18:57;;;;;;;;;;;;;;;;;;5052816;28;20296;-74
2023/03/05 00:21:23;;;;;;;;;;;;;;;;;;5052841;28;19905;-73
2023/03/05 00:23:52;;;;;;;;;;;;;;;;;;5052970;28;19905;-74
2023/03/05 00:26:18;;;;;;;;;;;;;;;;;;5052739;28;19917;-72
2023/03/05 00:28:48;;;;;;;;;;;;;;;;;;5052570;28;19904;-74
2023/03/05 00:31:14;;;;;;;;;;;;;;;;;;5052627;28;19909;-74
2023/03/05 00:33:40;;;;;;;;;;;;;;;;;;5052681;28;19911;-73
2023/03/05 00:36:06;;;;;;;;;;;;;;;;;;5052555;28;19904;-73
2023/03/05 00:38:32;;;;;;;;;;;;;;;;;;5052389;28;19905;-74
2023/03/05 00:40:58;;;;;;;;;;;;;;;;;;5052357;28;19959;-72
2023/03/05 00:43:24;;;;;;;;;;;;;;;;;;5052298;28;20003;-74
2023/03/05 00:45:50;;;;;;;;;;;;;;;;;;5052198;28;19905;-73
2023/03/05 00:48:16;;;;;;;;;;;;;;;;;;5050864;28;19904;-72
2023/03/05 00:50:41;;;;;;;;;;;;;;;;;;5052147;28;19955;-73
2023/03/05 00:53:07;;;;;;;;;;;;;;;;;;5052301;28;20015;-73
2023/03/05 00:55:34;;;;;;;;;;;;;;;;;;5052044;28;19931;-73
2023/03/05 00:58:01;;;;;;;;;;;;;;;;;;5052219;28;19920;-73
2023/03/05 01:00:26;;;;;;;;;;;;;;;;;;5052232;28;19909;-73
2023/03/05 01:02:52;;;;;;;;;;;;;;;;;;5052068;28;20242;-73
2023/03/05 01:05:18;;;;;;;;;;;;;;;;;;5052084;28;19909;-74
2023/03/05 01:07:44;;;;;;;;;;;;;;;;;;5051948;28;19905;-72
2023/03/05 01:10:10;;;;;;;;;;;;;;;;;;5051863;28;19912;-74
2023/03/05 01:12:36;;;;;;;;;;;;;;;;;;5051814;28;19909;-72
2023/03/05 01:15:02;;;;;;;;;;;;;;;;;;5051867;28;20441;-73
2023/03/05 01:17:28;;;;;;;;;;;;;;;;;;5051801;28;19916;-73
2023/03/05 01:19:54;;;;;;;;;;;;;;;;;;5051471;28;19967;-73
2023/03/05 01:22:20;;;;;;;;;;;;;;;;;;5051616;28;20012;-73
2023/03/05 01:24:46;;;;;;;;;;;;;;;;;;5050534;28;19905;-75
2023/03/05 01:27:11;;;;;;;;;;;;;;;;;;5051633;28;19908;-74
2023/03/05 01:29:37;;;;;;;;;;;;;;;;;;5051634;28;20524;-73
2023/03/05 01:32:03;;;;;;;;;;;;;;;;;;5050333;28;19905;-73
2023/03/05 01:34:29;;;;;;;;;;;;;;;;;;5051813;28;19905;-74
2023/03/05 01:36:55;;;;;;;;;;;;;;;;;;5051544;28;19912;-71
2023/03/05 01:39:21;;;;;;;;;;;;;;;;;;5051472;28;20491;-73
2023/03/05 01:41:47;;;;;;;;;;;;;;;;;;5051373;28;19909;-74
2023/03/05 01:44:13;;;;;;;;;;;;;;;;;;5051470;28;19912;-73
2023/03/05 01:46:39;;;;;;;;;;;;;;;;;;5051338;28;20349;-74
2023/03/05 01:49:05;;;;;;;;;;;;;;;;;;5051504;28;19930;-73
2023/03/05 01:51:30;;;;;;;;;;;;;;;;;;5051406;28;19901;-74
2023/03/05 01:53:57;;;;;;;;;;;;;;;;;;5051406;28;19912;-73
2023/03/05 01:56:22;;;;;;;;;;;;;;;;;;5052174;28;19913;-74
2023/03/05 01:58:48;;;;;;;;;;;;;;;;;;5054225;28;19915;-71
2023/03/05 02:01:15;;;;;;;;;;;;;;;;;;5055430;28;19930;-73
2023/03/05 02:03:41;;;;;;;;;;;;;;;;;;5055338;28;20377;-74
2023/03/05 02:06:07;;;;;;;;;;;;;;;;;;5055315;28;19912;-72
2023/03/05 02:08:33;;;;;;;;;;;;;;;;;;5055151;28;19905;-71
2023/03/05 02:11:00;;;;;;;;;;;;;;;;;;5055221;28;20336;-72
2023/03/05 02:13:26;;;;;;;;;;;;;;;;;;5055217;28;19905;-73
2023/03/05 02:15:52;;;;;;;;;;;;;;;;;;5055170;28;19912;-73
2023/03/05 02:18:18;;;;;;;;;;;;;;;;;;5054935;28;19917;-72
2023/03/05 02:20:44;;;;;;;;;;;;;;;;;;5055337;28;20016;-73
2023/03/05 02:23:10;;;;;;;;;;;;;;;;;;5055041;28;19904;-74
2023/03/05 02:25:36;;;;;;;;;;;;;;;;;;5055083;28;20273;-75
2023/03/05 02:28:02;;;;;;;;;;;;;;;;;;5055094;28;19905;-73
2023/03/05 02:30:28;;;;;;;;;;;;;;;;;;5054958;28;19915;-73
2023/03/05 02:32:54;;;;;;;;;;;;;;;;;;5055065;28;20269;-73
2023/03/05 02:35:19;;;;;;;;;;;;;;;;;;5054841;28;19948;-74
2023/03/05 02:37:45;;;;;;;;;;;;;;;;;;5054530;28;20432;-73
2023/03/05 02:40:11;;;;;;;;;;;;;;;;;;5053295;28;19963;-73
2023/03/05 02:42:37;;;;;;;;;;;;;;;;;;5054443;28;20004;-72
2023/03/05 02:45:03;;;;;;;;;;;;;;;;;;5054673;28;20015;-74
2023/03/05 02:47:29;;;;;;;;;;;;;;;;;;5054773;28;19931;-73
2023/03/05 02:49:55;;;;;;;;;;;;;;;;;;5054527;28;19905;-72
2023/03/05 02:52:24;;;;;;;;;;;;;;;;;;5054468;28;19905;-72
2023/03/05 02:54:50;;;;;;;;;;;;;;;;;;5054316;28;20226;-71
2023/03/05 02:57:16;;;;;;;;;;;;;;;;;;5054347;28;19913;-72
2023/03/05 02:59:42;;;;;;;;;;;;;;;;;;5054294;28;19939;-72
2023/03/05 03:02:08;;;;;;;;;;;;;;;;;;5054475;28;19905;-73
2023/03/05 03:04:33;;;;;;;;;;;;;;;;;;5054118;28;19905;-73
2023/03/05 03:06:59;;;;;;;;;;;;;;;;;;5053964;28;19912;-71
2023/03/05 03:09:26;;;;;;;;;;;;;;;;;;5033276;28;19913;-72
2023/03/05 03:11:52;;;;;;;;;;;;;;;;;;5034212;28;19905;-73
2023/03/05 03:14:17;;;;;;;;;;;;;;;;;;5034355;28;19936;-74
2023/03/05 03:16:43;;;;;;;;;;;;;;;;;;5033980;28;20346;-72
2023/03/05 03:19:09;;;;;;;;;;;;;;;;;;5033891;28;19923;-72
2023/03/05 03:21:35;;;;;;;;;;;;;;;;;;5034137;28;19920;-71
2023/03/05 03:24:01;;;;;;;;;;;;;;;;;;5047263;28;20113;-72
2023/03/05 03:26:27;;;;;;;;;;;;;;;;;;5052700;28;19904;-72
2023/03/05 03:28:53;;;;;;;;;;;;;;;;;;5053111;28;19931;-73
2023/03/05 03:31:19;;;;;;;;;;;;;;;;;;5053532;28;19908;-72
2023/03/05 03:33:45;;;;;;;;;;;;;;;;;;5053427;28;19986;-71
2023/03/05 03:36:11;;;;;;;;;;;;;;;;;;5053128;28;19912;-72
2023/03/05 03:38:37;;;;;;;;;;;;;;;;;;5053604;28;19912;-71
2023/03/05 03:41:03;;;;;;;;;;;;;;;;;;5053257;28;19912;-71
2023/03/05 03:43:29;;;;;;;;;;;;;;;;;;5053256;28;19954;-72
2023/03/05 03:45:55;;;;;;;;;;;;;;;;;;5053305;28;19905;-72
2023/03/05 03:48:20;;;;;;;;;;;;;;;;;;5052014;28;19905;-72
2023/03/05 03:50:46;;;;;;;;;;;;;;;;;;5053169;28;19905;-73
2023/03/05 03:53:13;;;;;;;;;;;;;;;;;;5053159;28;20265;-71
2023/03/05 03:55:39;;;;;;;;;;;;;;;;;;5053283;28;20034;-72
2023/03/05 03:58:05;;;;;;;;;;;;;;;;;;5052893;28;19919;-71
2023/03/05 04:00:31;;;;;;;;;;;;;;;;;;5053157;28;19905;-71
2023/03/05 04:02:57;;;;;;;;;;;;;;;;;;5052899;28;19905;-73
2023/03/05 04:05:23;;;;;;;;;;;;;;;;;;5052888;28;19905;-73
2023/03/05 04:07:49;;;;;;;;;;;;;;;;;;5052718;28;19909;-72
2023/03/05 04:10:15;;;;;;;;;;;;;;;;;;5052842;28;19915;-72
2023/03/05 04:12:42;;;;;;;;;;;;;;;;;;5053079;28;20842;-71
2023/03/05 04:15:08;;;;;;;;;;;;;;;;;;5052538;28;20000;-71
2023/03/05 04:17:34;;;;;;;;;;;;;;;;;;5052477;28;20015;-71
2023/03/05 04:20:00;;;;;;;;;;;;;;;;;;5051874;28;19923;-71
2023/03/05 04:22:26;;;;;;;;;;;;;;;;;;5052807;28;20323;-72
2023/03/05 04:24:52;;;;;;;;;;;;;;;;;;5052246;28;19904;-72
2023/03/05 04:27:17;;;;;;;;;;;;;;;;;;5052742;28;19957;-71
2023/03/05 04:29:43;;;;;;;;;;;;;;;;;;5052318;28;20254;-71
2023/03/05 04:32:09;;;;;;;;;;;;;;;;;;5052551;28;19912;-71
2023/03/05 04:34:35;;;;;;;;;;;;;;;;;;5052281;28;19979;-71
2023/03/05 04:37:01;;;;;;;;;;;;;;;;;;5052155;28;20281;-71
2023/03/05 04:39:27;;;;;;;;;;;;;;;;;;5052039;28;19909;-71
2023/03/05 04:41:53;;;;;;;;;;;;;;;;;;5050623;28;19905;-72
2023/03/05 04:44:22;;;;;;;;;;;;;;;;;;5052083;28;20387;-71
2023/03/05 04:46:47;;;;;;;;;;;;;;;;;;5052239;28;19905;-70
2023/03/05 04:49:14;;;;;;;;;;;;;;;;;;5051976;28;19901;-72
2023/03/05 04:51:40;;;;;;;;;;;;;;;;;;5051979;28;20258;-72
2023/03/05 04:54:06;;;;;;;;;;;;;;;;;;5052235;28;19948;-72
2023/03/05 04:56:32;;;;;;;;;;;;;;;;;;5051740;28;20015;-72
2023/03/05 04:58:58;;;;;;;;;;;;;;;;;;5051853;28;19959;-71
2023/03/05 05:01:24;;;;;;;;;;;;;;;;;;5051839;28;19935;-71
2023/03/05 05:03:50;;;;;;;;;;;;;;;;;;5051664;28;19956;-72
2023/03/05 05:06:16;;;;;;;;;;;;;;;;;;5051647;28;19951;-72
2023/03/05 05:08:42;;;;;;;;;;;;;;;;;;5051884;28;19912;-71
2023/03/05 05:11:08;;;;;;;;;;;;;;;;;;5051649;28;20003;-71
2023/03/05 05:13:34;;;;;;;;;;;;;;;;;;5051449;28;19999;-71
2023/03/05 05:16:00;;;;;;;;;;;;;;;;;;5051683;28;19905;-71
2023/03/05 05:18:26;;;;;;;;;;;;;;;;;;5051442;28;20306;-71
2023/03/05 05:20:52;;;;;;;;;;;;;;;;;;5051420;28;19937;-71
2023/03/05 05:23:17;;;;;;;;;;;;;;;;;;5051521;28;19952;-72
2023/03/05 05:25:44;;;;;;;;;;;;;;;;;;5051347;28;20329;-72
2023/03/05 05:28:10;;;;;;;;;;;;;;;;;;5051664;28;20331;-72
2023/03/05 05:30:36;;;;;;;;;;;;;;;;;;5050869;28;19905;-71
2023/03/05 05:33:02;;;;;;;;;;;;;;;;;;5051063;28;19904;-71
2023/03/05 05:35:28;;;;;;;;;;;;;;;;;;5051342;28;19904;-71
2023/03/05 05:37:54;;;;;;;;;;;;;;;;;;5051088;28;19912;-70
2023/03/05 05:40:19;;;;;;;;;;;;;;;;;;5051242;28;20011;-70
2023/03/05 05:42:45;;;;;;;;;;;;;;;;;;5051326;28;20272;-71
2023/03/05 05:45:11;;;;;;;;;;;;;;;;;;5051172;28;20350;-70
2023/03/05 05:47:37;;;;;;;;;;;;;;;;;;5051033;28;20004;-72
2023/03/05 05:50:03;;;;;;;;;;;;;;;;;;5051150;28;19995;-71
2023/03/05 05:52:29;;;;;;;;;;;;;;;;;;5051331;28;19951;-70
2023/03/05 05:54:55;;;;;;;;;;;;;;;;;;5050965;28;19904;-72
2023/03/05 05:57:21;;;;;;;;;;;;;;;;;;5050989;28;19913;-71
2023/03/05 05:59:47;;;;;;;;;;;;;;;;;;5051130;28;19905;-71
2023/03/05 06:02:13;;;;;;;;;;;;;;;;;;5043653;28;20404;-70
2023/03/05 06:04:39;;;;;;;;;;;;;;;;;;5045755;28;19927;-70
2023/03/05 06:07:05;;;;;;;;;;;;;;;;;;5042906;28;19987;-71
2023/03/05 06:09:31;;;;;;;;;;;;;;;;;;5050755;28;19948;-72
2023/03/05 06:11:56;;;;;;;;;;;;;;;;;;5032411;28;20002;-71
2023/03/05 06:14:22;;;;;;;;;;;;;;;;;;5031029;28;19941;-71
2023/03/05 06:16:48;;;;;;;;;;;;;;;;;;5030996;28;19925;-70
2023/03/05 06:19:14;;;;;;;;;;;;;;;;;;5031577;28;19924;-71
2023/03/05 06:21:41;;;;;;;;;;;;;;;;;;5030824;28;19912;-72
2023/03/05 06:24:07;;;;;;;;;;;;;;;;;;5036763;28;19912;-72
2023/03/05 06:26:33;;;;;;;;;;;;;;;;;;5031207;28;19909;-73
2023/03/05 06:28:59;;;;;;;;;;;;;;;;;;5031244;28;19952;-73
2023/03/05 06:31:25;;;;;;;;;;;;;;;;;;5031439;28;19909;-72
2023/03/05 06:33:51;;;;;;;;;;;;;;;;;;5030713;28;19901;-71
2023/03/05 06:36:17;;;;;;;;;;;;;;;;;;5044873;28;19909;-71
2023/03/05 06:38:43;;;;;;;;;;;;;;;;;;5043985;28;19939;-72
2023/03/05 06:41:10;;;;;;;;;;;;;;;;;;5054092;28;19912;-72
2023/03/05 06:43:37;;;;;;;;;;;;;;;;;;5073061;28;19904;-71
2023/03/05 06:46:03;;;;;;;;;;;;;;;;;;5074487;28;20345;-71
2023/03/05 06:48:29;;;;;;;;;;;;;;;;;;5071348;28;20308;-73
2023/03/05 06:50:55;;;;;;;;;;;;;;;;;;5050006;28;19955;-72
2023/03/05 06:53:21;;;;;;;;;;;;;;;;;;5034460;28;19996;-72
2023/03/05 06:55:47;;;;;;;;;;;;;;;;;;5034355;28;19905;-73
2023/03/05 06:58:13;;;;;;;;;;;;;;;;;;5046303;28;19917;-72
2023/03/05 07:00:38;;;;;;;;;;;;;;;;;;5054597;28;20334;-73
2023/03/05 07:03:04;;;;;;;;;;;;;;;;;;5054295;28;19908;-73
2023/03/05 07:05:30;;;;;;;;;;;;;;;;;;5053101;28;19970;-72
2023/03/05 07:07:56;;;;;;;;;;;;;;;;;;5054314;28;19911;-72
2023/03/05 07:10:22;;;;;;;;;;;;;;;;;;5034891;28;19909;-72
2023/03/05 07:12:48;;;;;;;;;;;;;;;;;;5034271;28;19913;-72
2023/03/05 07:15:14;;;;;;;;;;;;;;;;;;5034123;28;19905;-71
2023/03/05 07:17:40;;;;;;;;;;;;;;;;;;5034221;28;19967;-72
2023/03/05 07:20:06;;;;;;;;;;;;;;;;;;5033964;28;20300;-72
2023/03/05 07:22:32;;;;;;;;;;;;;;;;;;5034062;28;19912;-72
2023/03/05 07:24:58;;;;;;;;;;;;;;;;;;5033662;28;19916;-71
2023/03/05 07:27:24;;;;;;;;;;;;;;;;;;5033828;28;19912;-70
2023/03/05 07:29:50;;;;;;;;;;;;;;;;;;5034197;28;19912;-71
2023/03/05 07:32:16;;;;;;;;;;;;;;;;;;5033949;28;19904;-73
2023/03/05 07:34:42;;;;;;;;;;;;;;;;;;5033306;28;20380;-72
2023/03/05 07:37:08;;;;;;;;;;;;;;;;;;5033788;28;19939;-71
2023/03/05 07:39:34;;;;;;;;;;;;;;;;;;5046323;28;20339;-71
2023/03/05 07:41:59;;;;;;;;;;;;;;;;;;5053514;28;20002;-72
2023/03/05 07:44:25;;;;;;;;;;;;;;;;;;5053612;28;20273;-71
2023/03/05 07:46:51;;;;;;;;;;;;;;;;;;5052584;28;20420;-72
2023/03/05 07:49:17;;;;;;;;;;;;;;;;;;5036353;28;19952;-72
2023/03/05 07:51:43;;;;;;;;;;;;;;;;;;5032075;28;19905;-70
2023/03/05 07:54:09;;;;;;;;;;;;;;;;;;5037005;28;19909;-72
2023/03/05 07:56:35;;;;;;;;;;;;;;;;;;5053340;28;20357;-71
2023/03/05 07:59:01;;;;;;;;;;;;;;;;;;5042994;28;19909;-72
2023/03/05 08:01:27;;;;;;;;;;;;;;;;;;5033376;28;19905;-72
2023/03/05 08:03:53;;;;;;;;;;;;;;;;;;5034534;28;20249;-73
2023/03/05 08:06:19;;;;;;;;;;;;;;;;;;5033188;28;19924;-73
2023/03/05 08:08:45;;;;;;;;;;;;;;;;;;5045952;28;19909;-73
2023/03/05 08:11:10;;;;;;;;;;;;;;;;;;5036443;28;20243;-71
2023/03/05 08:13:36;;;;;;;;;;;;;;;;;;5044295;28;19931;-70
2023/03/05 08:16:02;;;;;;;;;;;;;;;;;;5037731;28;20341;-73
2023/03/05 08:18:28;;;;;;;;;;;;;;;;;;5051419;28;19920;-71
2023/03/05 08:20:54;;;;;;;;;;;;;;;;;;5053032;28;19904;-71
2023/03/05 08:23:20;;;;;;;;;;;;;;;;;;5041290;28;20285;-72
2023/03/05 08:25:46;;;;;;;;;;;;;;;;;;5051191;28;19904;-71
2023/03/05 08:28:12;;;;;;;;;;;;;;;;;;5047959;28;19959;-71
2023/03/05 08:30:38;;;;;;;;;;;;;;;;;;5032554;28;20281;-70
2023/03/05 08:33:04;;;;;;;;;;;;;;;;;;5032906;28;19905;-71
2023/03/05 08:35:30;;;;;;;;;;;;;;;;;;5033112;28;19912;-71
2023/03/05 08:37:56;;;;;;;;;;;;;;;;;;5032475;28;19938;-70
2023/03/05 08:40:22;;;;;;;;;;;;;;;;;;5038694;28;19999;-71
2023/03/05 08:42:48;;;;;;;;;;;;;;;;;;5041529;28;19909;-72
2023/03/05 08:45:14;;;;;;;;;;;;;;;;;;5032501;28;19912;-72
2023/03/05 08:47:40;;;;;;;;;;;;;;;;;;5043591;28;20368;-72
2023/03/05 08:50:05;;;;;;;;;;;;;;;;;;5042774;28;20013;-72
2023/03/05 08:52:31;;;;;;;;;;;;;;;;;;5045837;28;20008;-72
2023/03/05 08:54:57;;;;;;;;;;;;;;;;;;5052204;28;20005;-71
2023/03/05 08:57:23;;;;;;;;;;;;;;;;;;5047696;28;20455;-71
2023/03/05 08:59:49;;;;;;;;;;;;;;;;;;5035372;28;19940;-72
2023/03/05 09:02:15;;;;;;;;;;;;;;;;;;5038992;28;19916;-73
2023/03/05 09:04:41;;;;;;;;;;;;;;;;;;5047372;28;19964;-73
2023/03/05 09:07:07;;;;;;;;;;;;;;;;;;5050961;28;19912;-72
2023/03/05 09:09:33;;;;;;;;;;;;;;;;;;5045275;28;19905;-71
2023/03/05 09:11:59;;;;;;;;;;;;;;;;;;5037632;28;19951;-71
2023/03/05 09:14:27;;;;;;;;;;;;;;;;;;5045646;28;19913;-72
2023/03/05 09:16:53;;;;;;;;;;;;;;;;;;5040705;28;19959;-72
2023/03/05 09:19:19;;;;;;;;;;;;;;;;;;5050305;28;19955;-74
2023/03/05 09:21:44;;;;;;;;;;;;;;;;;;5036789;28;19955;-74
2023/03/05 09:24:10;;;;;;;;;;;;;;;;;;5031946;28;19905;-74
2023/03/05 09:26:36;;;;;;;;;;;;;;;;;;5031860;28;19911;-77
2023/03/05 09:29:02;;;;;;;;;;;;;;;;;;5035952;28;19905;-74
2023/03/05 09:31:28;;;;;;;;;;;;;;;;;;5047092;28;20377;-74
2023/03/05 09:33:54;;;;;;;;;;;;;;;;;;5035609;28;19909;-75
2023/03/05 09:36:20;;;;;;;;;;;;;;;;;;5042190;28;19936;-73
2023/03/05 09:38:46;;;;;;;;;;;;;;;;;;5044567;28;19913;-74
2023/03/05 09:41:13;;;;;;;;;;;;;;;;;;5034829;28;19909;-73
2023/03/05 09:43:38;;;;;;;;;;;;;;;;;;5042050;28;20011;-75
2023/03/05 09:46:04;;;;;;;;;;;;;;;;;;5034074;28;20434;-74
2023/03/05 09:48:30;;;;;;;;;;;;;;;;;;5044329;28;20003;-73
2023/03/05 09:50:56;;;;;;;;;;;;;;;;;;5050403;28;19999;-74
2023/03/05 09:53:22;;;;;;;;;;;;;;;;;;5031780;28;19998;-74
2023/03/05 09:55:48;;;;;;;;;;;;;;;;;;5037219;28;19979;-73
2023/03/05 09:58:14;;;;;;;;;;;;;;;;;;5048544;28;19913;-74
2023/03/05 10:00:40;;;;;;;;;;;;;;;;;;5050658;28;19987;-74
2023/03/05 10:03:06;;;;;;;;;;;;;;;;;;5037426;28;20011;-75
2023/03/05 10:05:32;;;;;;;;;;;;;;;;;;5035622;28;19948;-75
2023/03/05 10:07:58;;;;;;;;;;;;;;;;;;5037721;28;19956;-74
2023/03/05 10:10:24;;;;;;;;;;;;;;;;;;5049811;28;20373;-74
2023/03/05 10:12:50;;;;;;;;;;;;;;;;;;5047499;28;20699;-74
2023/03/05 10:15:16;;;;;;;;;;;;;;;;;;5051020;28;19909;-74
2023/03/05 10:17:41;;;;;;;;;;;;;;;;;;5033776;28;20388;-73
2023/03/05 10:20:07;;;;;;;;;;;;;;;;;;5048860;28;20336;-75
2023/03/05 10:22:33;;;;;;;;;;;;;;;;;;5054674;28;19909;-75
2023/03/05 10:24:59;;;;;;;;;;;;;;;;;;5055047;28;20510;-74
2023/03/05 10:27:25;;;;;;;;;;;;;;;;;;5051449;28;19909;-74
2023/03/05 10:29:51;;;;;;;;;;;;;;;;;;5047804;28;19905;-73
2023/03/05 10:32:17;;;;;;;;;;;;;;;;;;5054775;28;20391;-75
2023/03/05 10:34:43;;;;;;;;;;;;;;;;;;5053338;28;19909;-73
2023/03/05 10:37:09;;;;;;;;;;;;;;;;;;5040302;28;19917;-74
2023/03/05 10:39:35;;;;;;;;;;;;;;;;;;5034646;28;19966;-74
2023/03/05 10:42:04;;;;;;;;;;;;;;;;;;5035900;28;20008;-75
2023/03/05 10:44:30;;;;;;;;;;;;;;;;;;5036653;28;19913;-74
2023/03/05 10:46:56;;;;;;;;;;;;;;;;;;5053616;28;20055;-73
2023/03/05 10:49:22;;;;;;;;;;;;;;;;;;5054542;28;19996;-73
2023/03/05 10:51:48;;;;;;;;;;;;;;;;;;5040843;28;20552;-72
2023/03/05 10:54:14;;;;;;;;;;;;;;;;;;5034410;28;20394;-73
2023/03/05 10:56:40;;;;;;;;;;;;;;;;;;5034076;28;19916;-73
2023/03/05 10:59:06;;;;;;;;;;;;;;;;;;5034135;28;20000;-73
2023/03/05 11:01:32;;;;;;;;;;;;;;;;;;5036366;28;20046;-74
2023/03/05 11:03:58;;;;;;;;;;;;;;;;;;5051895;28;19912;-73
2023/03/05 11:06:24;;;;;;;;;;;;;;;;;;5046885;28;19913;-73
2023/03/05 11:08:49;;;;;;;;;;;;;;;;;;5034324;28;20384;-73
2023/03/05 11:11:15;;;;;;;;;;;;;;;;;;5041084;28;19921;-73
2023/03/05 11:13:41;;;;;;;;;;;;;;;;;;5053870;28;19912;-73
2023/03/05 11:16:07;;;;;;;;;;;;;;;;;;5051864;28;19917;-73
2023/03/05 11:18:33;;;;;;;;;;;;;;;;;;5033892;28;19964;-73
2023/03/05 11:20:59;;;;;;;;;;;;;;;;;;5037573;28;19944;-71
2023/03/05 11:23:26;;;;;;;;;;;;;;;;;;5052876;28;19952;-72
2023/03/05 11:25:51;;;;;;;;;;;;;;;;;;5033859;28;19912;-75
2023/03/05 11:28:17;;;;;;;;;;;;;;;;;;5033580;28;19905;-75
2023/03/05 11:30:43;;;;;;;;;;;;;;;;;;5035272;28;19915;-74
2023/03/05 11:33:09;;;;;;;;;;;;;;;;;;5031725;28;20378;-75
2023/03/05 11:35:35;;;;;;;;;;;;;;;;;;5035266;28;20502;-74
2023/03/05 11:38:01;;;;;;;;;;;;;;;;;;5053395;28;20385;-73
2023/03/05 11:40:27;;;;;;;;;;;;;;;;;;5036917;28;19916;-73
2023/03/05 11:42:53;;;;;;;;;;;;;;;;;;5035852;28;19909;-74
2023/03/05 11:45:19;;;;;;;;;;;;;;;;;;5041779;28;19975;-74
2023/03/05 11:47:45;;;;;;;;;;;;;;;;;;5033368;28;19905;-74
2023/03/05 11:50:11;;;;;;;;;;;;;;;;;;5034850;28;19995;-73
2023/03/05 11:52:37;;;;;;;;;;;;;;;;;;5032941;28;20075;-75
2023/03/05 11:55:03;;;;;;;;;;;;;;;;;;5033375;28;20483;-74
2023/03/05 11:57:29;;;;;;;;;;;;;;;;;;5033744;28;19913;-77
2023/03/05 11:59:55;;;;;;;;;;;;;;;;;;5042648;28;20247;-75
2023/03/05 12:02:21;;;;;;;;;;;;;;;;;;5039471;28;19909;-75
2023/03/05 12:04:47;;;;;;;;;;;;;;;;;;5039284;28;20300;-76
2023/03/05 12:07:12;;;;;;;;;;;;;;;;;;5041630;28;20374;-76
2023/03/05 12:09:42;;;;;;;;;;;;;;;;;;5033009;28;20325;-76
2023/03/05 12:12:07;;;;;;;;;;;;;;;;;;5049586;28;19908;-73
2023/03/05 12:14:33;;;;;;;;;;;;;;;;;;5052825;28;19996;-76
2023/03/05 12:16:59;;;;;;;;;;;;;;;;;;5044418;28;19967;-75
2023/03/05 12:19:27;;;;;;;;;;;;;;;;;;5033057;28;19917;-75
2023/03/05 12:21:53;;;;;;;;;;;;;;;;;;5043759;28;19905;-76
2023/03/05 12:24:19;;;;;;;;;;;;;;;;;;5032270;28;19909;-74
2023/03/05 12:26:45;;;;;;;;;;;;;;;;;;5053401;28;19904;-75
2023/03/05 12:29:10;;;;;;;;;;;;;;;;;;5035512;28;19971;-74
2023/03/05 12:31:36;;;;;;;;;;;;;;;;;;5049485;28;20412;-75
2023/03/05 12:34:02;;;;;;;;;;;;;;;;;;5045062;28;19909;-75
2023/03/05 12:36:28;;;;;;;;;;;;;;;;;;5040359;28;19955;-74
2023/03/05 12:38:54;;;;;;;;;;;;;;;;;;5037865;28;19905;-74
2023/03/05 12:41:20;;;;;;;;;;;;;;;;;;5031685;28;19971;-75
2023/03/05 12:43:46;;;;;;;;;;;;;;;;;;5032603;28;20341;-76
2023/03/05 12:46:12;;;;;;;;;;;;;;;;;;5030933;28;20349;-75
2023/03/05 12:48:38;;;;;;;;;;;;;;;;;;5038052;28;19966;-75
2023/03/05 12:51:04;;;;;;;;;;;;;;;;;;5042764;28;19909;-77
2023/03/05 12:53:30;;;;;;;;;;;;;;;;;;5042908;28;19909;-77
2023/03/05 12:55:56;;;;;;;;;;;;;;;;;;5052385;28;19905;-79
2023/03/05 12:58:22;;;;;;;;;;;;;;;;;;5052098;28;20354;-74
2023/03/05 13:00:51;;;;;;;;;;;;;;;;;;5045338;28;19909;-75
2023/03/05 13:03:17;;;;;;;;;;;;;;;;;;5032299;28;19916;-74
2023/03/05 13:05:42;;;;;;;;;;;;;;;;;;5030910;28;19908;-73
2023/03/05 13:08:08;;;;;;;;;;;;;;;;;;5032178;28;19904;-76
2023/03/05 13:10:34;;;;;;;;;;;;;;;;;;5040881;28;20387;-69
2023/03/05 13:13:01;;;;;;;;;;;;;;;;;;5051775;28;20007;-70
2023/03/05 13:15:27;;;;;;;;;;;;;;;;;;5040567;28;20357;-70
2023/03/05 13:17:53;;;;;;;;;;;;;;;;;;5031635;28;19975;-69
2023/03/05 13:20:19;;;;;;;;;;;;;;;;;;5034666;28;19921;-70
2023/03/05 13:22:45;;;;;;;;;;;;;;;;;;5035605;28;19935;-68
2023/03/05 13:25:11;;;;;;;;;;;;;;;;;;5034161;28;19927;-68
2023/03/05 13:27:36;;;;;;;;;;;;;;;;;;5031858;28;20267;-68
2023/03/05 13:30:02;;;;;;;;;;;;;;;;;;5033191;28;20423;-66
2023/03/05 13:32:28;;;;;;;;;;;;;;;;;;5030086;28;20007;-68
2023/03/05 13:34:54;;;;;;;;;;;;;;;;;;5048280;28;19951;-69
2023/03/05 13:37:20;;;;;;;;;;;;;;;;;;5048177;28;19975;-70
2023/03/05 13:39:46;;;;;;;;;;;;;;;;;;5049694;28;19944;-71
2023/03/05 13:42:12;;;;;;;;;;;;;;;;;;5031495;28;19905;-68
2023/03/05 13:44:38;;;;;;;;;;;;;;;;;;5041576;28;19912;-69
2023/03/05 13:47:04;;;;;;;;;;;;;;;;;;5042144;28;19909;-68
2023/03/05 13:49:31;;;;;;;;;;;;;;;;;;5047793;28;19954;-69
2023/03/05 13:51:58;;;;;;;;;;;;;;;;;;5048650;28;20297;-69
2023/03/05 13:54:24;;;;;;;;;;;;;;;;;;5041921;28;19967;-68
2023/03/05 13:56:50;;;;;;;;;;;;;;;;;;5058737;28;19952;-68
2023/03/05 13:59:16;;;;;;;;;;;;;;;;;;5063242;28;19911;-69
2023/03/05 14:01:42;;;;;;;;;;;;;;;;;;5071276;28;19911;-67
2023/03/05 14:04:08;;;;;;;;;;;;;;;;;;5071255;28;20261;-67
2023/03/05 14:06:34;;;;;;;;;;;;;;;;;;5050294;28;19988;-68
2023/03/05 14:09:00;;;;;;;;;;;;;;;;;;5051406;28;19912;-68
2023/03/05 14:11:26;;;;;;;;;;;;;;;;;;5049108;28;19974;-69
2023/03/05 14:13:52;;;;;;;;;;;;;;;;;;5036993;28;19913;-67
2023/03/05 14:16:18;;;;;;;;;;;;;;;;;;5034051;28;19908;-70
2023/03/05 14:18:44;;;;;;;;;;;;;;;;;;5037752;28;19917;-68
2023/03/05 14:21:10;;;;;;;;;;;;;;;;;;5031495;28;19913;-67
2023/03/05 14:23:35;;;;;;;;;;;;;;;;;;5034309;28;19917;-69
2023/03/05 14:26:01;;;;;;;;;;;;;;;;;;5036569;28;19939;-70
2023/03/05 14:28:27;;;;;;;;;;;;;;;;;;5031564;28;20503;-68
2023/03/05 14:30:53;;;;;;;;;;;;;;;;;;5031005;28;19905;-71
2023/03/05 14:33:19;;;;;;;;;;;;;;;;;;5031422;28;19970;-69
2023/03/05 14:35:45;;;;;;;;;;;;;;;;;;5031142;28;19905;-69
2023/03/05 14:38:11;;;;;;;;;;;;;;;;;;5030935;28;19913;-70
2023/03/05 14:40:37;;;;;;;;;;;;;;;;;;5032406;28;19919;-69
2023/03/05 14:43:03;;;;;;;;;;;;;;;;;;5044665;28;20011;-68
2023/03/05 14:45:29;;;;;;;;;;;;;;;;;;5050853;28;20009;-68
2023/03/05 14:47:55;;;;;;;;;;;;;;;;;;5037797;28;19909;-69
2023/03/05 14:50:21;;;;;;;;;;;;;;;;;;5030891;28;19905;-69
2023/03/05 14:52:47;;;;;;;;;;;;;;;;;;5030848;28;20362;-69
2023/03/05 14:55:13;;;;;;;;;;;;;;;;;;5030676;28;19905;-68
2023/03/05 14:57:39;;;;;;;;;;;;;;;;;;5035594;28;19917;-68
2023/03/05 15:00:05;;;;;;;;;;;;;;;;;;5050582;28;20003;-68
2023/03/05 15:02:31;;;;;;;;;;;;;;;;;;5040820;28;20000;-70
2023/03/05 15:04:57;;;;;;;;;;;;;;;;;;5033826;28;19937;-69
2023/03/05 15:07:23;;;;;;;;;;;;;;;;;;5034338;28;19905;-69
2023/03/05 15:09:49;;;;;;;;;;;;;;;;;;5049184;28;19909;-69
2023/03/05 15:12:15;;;;;;;;;;;;;;;;;;5039234;28;19925;-69
2023/03/05 15:14:44;;;;;;;;;;;;;;;;;;5033554;28;20297;-69
2023/03/05 15:17:10;;;;;;;;;;;;;;;;;;5036205;28;19921;-70
2023/03/05 15:19:35;;;;;;;;;;;;;;;;;;5033876;28;20352;-70
2023/03/05 15:22:01;;;;;;;;;;;;;;;;;;5033844;28;19947;-69
2023/03/05 15:24:27;;;;;;;;;;;;;;;;;;5033850;28;19932;-69
2023/03/05 15:26:53;;;;;;;;;;;;;;;;;;5033753;28;19905;-69
2023/03/05 15:29:19;;;;;;;;;;;;;;;;;;5034177;28;19951;-71
2023/03/05 15:31:45;;;;;;;;;;;;;;;;;;5043671;28;20380;-71
2023/03/05 15:34:11;;;;;;;;;;;;;;;;;;5033694;28;19905;-69
2023/03/05 15:36:37;;;;;;;;;;;;;;;;;;5039943;28;19989;-71
2023/03/05 15:39:03;;;;;;;;;;;;;;;;;;5033869;28;19909;-71
2023/03/05 15:41:29;;;;;;;;;;;;;;;;;;5034388;28;19936;-69
2023/03/05 15:43:55;;;;;;;;;;;;;;;;;;5033887;28;19905;-70
2023/03/05 15:46:21;;;;;;;;;;;;;;;;;;5053326;28;20380;-69
2023/03/05 15:48:48;;;;;;;;;;;;;;;;;;5046269;28;19909;-69
2023/03/05 15:51:14;;;;;;;;;;;;;;;;;;5043933;28;19935;-70
2023/03/05 15:53:40;;;;;;;;;;;;;;;;;;5053375;28;19908;-69
2023/03/05 15:56:06;;;;;;;;;;;;;;;;;;5039078;28;20397;-70
2023/03/05 15:58:32;;;;;;;;;;;;;;;;;;5047750;28;19936;-70
2023/03/05 16:00:58;;;;;;;;;;;;;;;;;;5034499;28;19909;-70
2023/03/05 16:03:24;;;;;;;;;;;;;;;;;;5033251;28;19909;-70
2023/03/05 16:05:50;;;;;;;;;;;;;;;;;;5032942;28;20243;-70
2023/03/05 16:08:16;;;;;;;;;;;;;;;;;;5034920;28;20357;-69
2023/03/05 16:10:42;;;;;;;;;;;;;;;;;;5033169;28;19913;-69
2023/03/05 16:13:08;;;;;;;;;;;;;;;;;;5033685;28;19916;-68
2023/03/05 16:15:34;;;;;;;;;;;;;;;;;;5033838;28;19947;-69
2023/03/05 16:17:59;;;;;;;;;;;;;;;;;;5039059;28;20012;-69
2023/03/05 16:20:25;;;;;;;;;;;;;;;;;;5032622;28;19963;-69
2023/03/05 16:22:51;;;;;;;;;;;;;;;;;;5033417;28;19948;-71
2023/03/05 16:25:17;;;;;;;;;;;;;;;;;;5037814;28;19931;-69
2023/03/05 16:27:43;;;;;;;;;;;;;;;;;;5045650;28;19927;-70
2023/03/05 16:30:10;;;;;;;;;;;;;;;;;;5052735;28;19924;-70
2023/03/05 16:32:36;;;;;;;;;;;;;;;;;;5046675;28;19908;-68
2023/03/05 16:35:02;;;;;;;;;;;;;;;;;;5037119;28;19905;-70
2023/03/05 16:37:28;;;;;;;;;;;;;;;;;;5038179;28;19920;-70